createdAt,value
2019-05-23T00:00:59.670Z,9.50
2019-05-23T00:04:17.831Z,9.30
2019-05-23T00:07:29.652Z,8.95
2019-05-23T00:10:35.743Z,8.63
2019-05-23T00:13:37.025Z,8.98
2019-05-23T00:16:26.778Z,8.90
2019-05-23T00:19:13.764Z,9.10
2019-05-23T00:21:59.241Z,8.45
2019-05-23T00:24:47.244Z,9.35
2019-05-23T00:27:33.463Z,9.78
2019-05-23T00:30:20.219Z,8.83
2019-05-23T00:33:07.038Z,9.40
2019-05-23T00:35:52.741Z,9.15
2019-05-23T00:38:37.905Z,9.28
2019-05-23T00:41:24.830Z,8.85
2019-05-23T00:44:11.210Z,9.50
2019-05-23T00:46:58.372Z,8.55
2019-05-23T00:49:43.202Z,9.00
2019-05-23T00:52:28.407Z,9.00
2019-05-23T00:55:13.973Z,9.40
2019-05-23T00:57:59.642Z,8.98
2019-05-23T01:00:44.877Z,9.73
2019-05-23T01:03:30.520Z,8.98
2019-05-23T01:06:17.581Z,8.98
2019-05-23T01:09:06.142Z,8.38
2019-05-23T01:11:50.969Z,8.48
2019-05-23T01:14:36.345Z,8.70
2019-05-23T01:17:24.707Z,9.00
2019-05-23T01:20:15.404Z,8.53
2019-05-23T01:23:01.579Z,9.25
2019-05-23T01:25:46.722Z,9.60
2019-05-23T01:28:31.732Z,8.70
2019-05-23T01:31:24.302Z,8.28
2019-05-23T01:34:11.056Z,9.38
2019-05-23T01:36:57.493Z,9.05
2019-05-23T01:39:43.937Z,9.95
2019-05-23T01:42:30.126Z,8.58
2019-05-23T01:45:15.880Z,8.28
2019-05-23T01:48:01.270Z,8.50
2019-05-23T01:50:46.746Z,8.55
2019-05-23T01:53:32.030Z,8.05
2019-05-23T01:56:17.682Z,7.85
2019-05-23T01:59:03.286Z,8.30
2019-05-23T02:01:48.683Z,8.10
2019-05-23T02:04:33.563Z,7.92
2019-05-23T02:07:18.925Z,7.45
2019-05-23T02:10:10.296Z,7.87
2019-05-23T02:12:56.013Z,8.08
2019-05-23T02:15:41.477Z,8.08
2019-05-23T02:18:27.349Z,8.20
2019-05-23T02:21:14.601Z,7.95
2019-05-23T02:24:00.061Z,8.50
2019-05-23T02:26:46.098Z,8.00
2019-05-23T02:29:31.710Z,8.53
2019-05-23T02:32:17.013Z,8.63
2019-05-23T02:35:06.613Z,7.78
2019-05-23T02:37:53.744Z,7.95
2019-05-23T02:40:40.770Z,8.25
2019-05-23T02:43:28.080Z,8.73
2019-05-23T02:46:18.597Z,8.35
2019-05-23T02:49:06.109Z,8.25
2019-05-23T02:51:53.059Z,8.30
2019-05-23T02:54:38.273Z,8.68
2019-05-23T02:57:24.623Z,8.78
2019-05-23T03:00:52.097Z,8.08
2019-05-23T03:03:25.111Z,8.50
2019-05-23T03:06:11.763Z,8.20
2019-05-23T03:08:58.954Z,7.83
2019-05-23T03:11:48.282Z,8.18
2019-05-23T03:14:33.583Z,7.97
2019-05-23T03:17:19.944Z,7.87
2019-05-23T03:20:07.368Z,8.03
2019-05-23T03:22:56.448Z,7.72
2019-05-23T03:25:45.067Z,8.33
2019-05-23T03:28:34.166Z,7.72
2019-05-23T03:31:29.797Z,6.80
2019-05-23T03:34:12.554Z,8.88
2019-05-23T03:36:57.999Z,8.50
2019-05-23T03:39:42.977Z,8.43
2019-05-23T03:42:28.410Z,8.55
2019-05-23T03:45:14.403Z,9.45
2019-05-23T03:48:01.321Z,7.97
2019-05-23T03:50:46.419Z,7.95
2019-05-23T03:53:33.554Z,7.08
2019-05-23T03:56:19.585Z,7.37
2019-05-23T03:59:06.639Z,7.10
2019-05-23T04:01:53.574Z,7.30
2019-05-23T04:04:38.951Z,7.78
2019-05-23T04:07:24.248Z,7.50
2019-05-23T04:10:10.269Z,7.83
2019-05-23T04:12:55.192Z,8.23
2019-05-23T04:15:40.247Z,8.10
2019-05-23T04:18:25.313Z,8.08
2019-05-23T04:21:10.019Z,8.78
2019-05-23T04:23:55.472Z,8.28
2019-05-23T04:26:40.533Z,7.72
2019-05-23T04:29:26.815Z,8.43
2019-05-23T04:32:12.651Z,8.60
2019-05-23T04:34:58.071Z,9.00
2019-05-23T04:37:43.301Z,8.85
2019-05-23T04:40:29.278Z,8.50
2019-05-23T04:43:14.966Z,8.65
2019-05-23T04:46:00.333Z,8.55
2019-05-23T04:48:45.086Z,8.33
2019-05-23T04:51:30.244Z,8.15
2019-05-23T04:54:15.117Z,8.95
2019-05-23T04:57:01.462Z,8.53
2019-05-23T04:59:47.612Z,8.23
2019-05-23T05:02:32.986Z,8.28
2019-05-23T05:05:20.189Z,8.35
2019-05-23T05:08:05.402Z,8.50
2019-05-23T05:10:50.776Z,8.30
2019-05-23T05:13:36.022Z,7.83
2019-05-23T05:16:20.729Z,8.53
2019-05-23T05:19:05.529Z,8.35
2019-05-23T05:21:50.881Z,9.53
2019-05-23T05:24:40.094Z,9.48
2019-05-23T05:27:23.778Z,9.28
2019-05-23T05:30:09.505Z,9.25
2019-05-23T05:32:56.088Z,9.63
2019-05-23T05:35:41.433Z,9.38
2019-05-23T05:38:28.553Z,9.20
2019-05-23T05:41:13.025Z,9.10
2019-05-23T05:43:58.239Z,8.93
2019-05-23T05:46:43.588Z,8.95
2019-05-23T05:49:28.647Z,8.83
2019-05-23T05:52:13.901Z,8.95
2019-05-23T05:55:00.911Z,9.05
2019-05-23T05:57:46.081Z,8.78
2019-05-23T06:00:38.468Z,9.08
2019-05-23T06:03:24.227Z,8.50
2019-05-23T06:06:13.863Z,8.83
2019-05-23T06:09:00.930Z,8.50
2019-05-23T06:11:46.181Z,9.43
2019-05-23T06:14:31.881Z,9.08
2019-05-23T06:17:20.068Z,10.45
2019-05-23T06:20:05.875Z,9.65
2019-05-23T06:23:04.731Z,9.40
2019-05-23T06:25:49.735Z,9.28
2019-05-23T06:28:35.858Z,9.90
2019-05-23T06:31:20.821Z,9.15
2019-05-23T06:34:06.028Z,9.65
2019-05-23T06:36:51.326Z,9.40
2019-05-23T06:39:37.963Z,8.83
2019-05-23T06:42:23.042Z,9.68
2019-05-23T06:45:09.715Z,10.03
2019-05-23T06:47:54.770Z,9.33
2019-05-23T06:50:39.924Z,9.93
2019-05-23T06:53:25.393Z,9.55
2019-05-23T06:56:12.169Z,8.55
2019-05-23T06:58:57.221Z,9.70
2019-05-23T07:01:41.931Z,9.08
2019-05-23T07:04:28.382Z,10.08
2019-05-23T07:07:14.042Z,8.85
2019-05-23T07:09:59.425Z,9.48
2019-05-23T07:12:44.797Z,9.18
2019-05-23T07:15:30.097Z,9.90
2019-05-23T07:18:15.525Z,9.28
2019-05-23T07:21:00.998Z,8.78
2019-05-23T07:23:46.210Z,9.65
2019-05-23T07:26:31.766Z,8.33
2019-05-23T07:29:16.628Z,7.33
2019-05-23T07:32:03.333Z,7.22
2019-05-23T07:34:48.194Z,7.25
2019-05-23T07:37:32.806Z,6.35
2019-05-23T07:40:18.105Z,6.03
2019-05-23T07:43:04.217Z,5.22
2019-05-23T07:46:02.153Z,6.05
2019-05-23T07:48:47.644Z,6.10
2019-05-23T07:51:33.142Z,6.20
2019-05-23T07:54:25.606Z,4.87
2019-05-23T07:57:12.925Z,5.67
2019-05-23T07:59:58.107Z,6.28
2019-05-23T08:02:44.456Z,6.08
2019-05-23T08:05:29.229Z,5.65
2019-05-23T08:08:15.302Z,5.15
2019-05-23T08:11:00.941Z,4.45
2019-05-23T08:13:47.245Z,4.97
2019-05-23T08:16:32.657Z,4.67
2019-05-23T08:19:19.669Z,3.83
2019-05-23T08:22:04.430Z,4.22
2019-05-23T08:24:51.279Z,4.33
2019-05-23T08:27:37.713Z,4.53
2019-05-23T08:30:24.106Z,5.53
2019-05-23T08:33:10.785Z,5.10
2019-05-23T08:35:57.469Z,6.83
2019-05-23T08:38:42.278Z,5.22
2019-05-23T08:41:28.146Z,5.20
2019-05-23T08:44:13.770Z,5.53
2019-05-23T08:46:59.457Z,5.10
2019-05-23T08:49:44.760Z,4.62
2019-05-23T08:52:29.857Z,4.08
2019-05-23T08:55:17.981Z,4.53
2019-05-23T08:58:04.087Z,5.10
2019-05-23T09:00:49.397Z,4.47
2019-05-23T09:03:34.580Z,4.08
2019-05-23T09:06:19.505Z,4.40
2019-05-23T09:09:27.536Z,5.17
2019-05-23T09:11:54.856Z,5.70
2019-05-23T09:14:40.294Z,4.85
2019-05-23T09:17:26.381Z,4.03
2019-05-23T09:20:12.387Z,4.55
2019-05-23T09:22:57.361Z,5.03
2019-05-23T09:25:42.114Z,4.47
2019-05-23T09:28:27.086Z,5.55
2019-05-23T09:31:13.022Z,5.20
2019-05-23T09:33:58.172Z,5.25
2019-05-23T09:36:43.397Z,4.67
2019-05-23T09:39:30.375Z,5.47
2019-05-23T09:42:15.415Z,5.33
2019-05-23T09:45:00.450Z,5.45
2019-05-23T09:47:45.127Z,4.85
2019-05-23T09:50:31.871Z,4.42
2019-05-23T09:53:17.740Z,5.47
2019-05-23T09:56:03.235Z,4.60
2019-05-23T09:58:48.361Z,4.62
2019-05-23T10:01:33.957Z,4.70
2019-05-23T10:04:19.135Z,4.15
2019-05-23T10:07:03.940Z,4.95
2019-05-23T10:09:48.723Z,4.90
2019-05-23T10:12:34.098Z,4.70
2019-05-23T10:15:36.917Z,4.53
2019-05-23T10:18:22.611Z,4.70
2019-05-23T10:21:07.516Z,5.30
2019-05-23T10:23:52.510Z,5.08
2019-05-23T10:26:37.114Z,5.15
2019-05-23T10:29:22.029Z,5.37
2019-05-23T10:32:08.918Z,5.85
2019-05-23T10:34:54.052Z,5.75
2019-05-23T10:37:39.403Z,6.17
2019-05-23T10:40:25.539Z,5.90
2019-05-23T10:43:11.399Z,6.85
2019-05-23T10:45:56.856Z,5.97
2019-05-23T10:48:41.580Z,5.28
2019-05-23T10:51:27.114Z,6.20
2019-05-23T10:54:12.946Z,4.90
2019-05-23T10:56:58.468Z,5.60
2019-05-23T10:59:43.771Z,4.53
2019-05-23T11:02:29.008Z,4.40
2019-05-23T11:05:15.029Z,4.62
2019-05-23T11:08:01.790Z,4.58
2019-05-23T11:10:46.836Z,5.08
2019-05-23T11:13:33.276Z,5.08
2019-05-23T11:16:18.342Z,5.10
2019-05-23T11:19:04.758Z,5.35
2019-05-23T11:21:51.018Z,4.37
2019-05-23T11:24:36.104Z,5.40
2019-05-23T11:27:21.979Z,5.60
2019-05-23T11:30:09.095Z,4.92
2019-05-23T11:32:54.232Z,4.42
2019-05-23T11:35:39.537Z,4.37
2019-05-23T11:38:26.366Z,4.50
2019-05-23T11:41:11.298Z,5.53
2019-05-23T11:43:56.101Z,4.92
2019-05-23T11:46:41.654Z,4.65
2019-05-23T11:49:26.678Z,6.15
2019-05-23T11:52:11.810Z,4.35
2019-05-23T11:54:56.750Z,5.00
2019-05-23T11:57:41.597Z,5.92
2019-05-23T12:00:53.365Z,4.83
2019-05-23T12:03:38.745Z,4.80
2019-05-23T12:06:26.534Z,4.87
2019-05-23T12:09:12.571Z,4.50
2019-05-23T12:11:57.442Z,4.97
2019-05-23T12:14:42.054Z,4.50
2019-05-23T12:17:29.614Z,4.35
2019-05-23T12:20:15.197Z,4.53
2019-05-23T12:23:00.303Z,4.00
2019-05-23T12:25:46.507Z,3.50
2019-05-23T12:28:31.309Z,4.90
2019-05-23T12:31:16.715Z,4.83
2019-05-23T12:34:02.241Z,4.08
2019-05-23T12:36:47.396Z,3.55
2019-05-23T12:39:31.965Z,3.65
2019-05-23T12:42:16.983Z,3.55
2019-05-23T12:45:05.239Z,3.90
2019-05-23T12:48:07.452Z,3.40
2019-05-23T12:51:00.795Z,3.60
2019-05-23T12:53:45.466Z,4.00
2019-05-23T12:56:30.358Z,4.28
2019-05-23T12:59:16.263Z,3.02
2019-05-23T13:02:01.873Z,2.58
2019-05-23T13:04:47.717Z,2.90
2019-05-23T13:07:36.675Z,4.33
2019-05-23T13:10:24.312Z,4.87
2019-05-23T13:13:07.704Z,3.02
2019-05-23T13:15:52.486Z,3.17
2019-05-23T13:18:37.262Z,3.25
2019-05-23T13:21:21.975Z,3.25
2019-05-23T13:24:06.818Z,2.72
2019-05-23T13:26:51.752Z,2.80
2019-05-23T13:29:36.924Z,2.92
2019-05-23T13:32:22.186Z,3.72
2019-05-23T13:35:07.550Z,2.98
2019-05-23T13:37:54.513Z,2.92
2019-05-23T13:40:40.279Z,3.40
2019-05-23T13:43:25.796Z,3.00
2019-05-23T13:46:10.773Z,4.03
2019-05-23T13:48:55.498Z,3.55
2019-05-23T13:51:40.954Z,4.08
2019-05-23T13:54:26.423Z,3.37
2019-05-23T13:57:12.287Z,3.75
2019-05-23T13:59:58.051Z,3.37
2019-05-23T14:02:43.332Z,3.70
2019-05-23T14:05:28.735Z,3.50
2019-05-23T14:08:13.936Z,3.75
2019-05-23T14:10:58.802Z,3.87
2019-05-23T14:13:44.675Z,6.40
2019-05-23T14:16:32.719Z,3.65
2019-05-23T14:19:18.011Z,4.15
2019-05-23T14:22:04.122Z,3.17
2019-05-23T14:24:49.034Z,3.42
2019-05-23T14:27:42.111Z,4.30
2019-05-23T14:30:29.268Z,4.47
2019-05-23T14:33:21.905Z,4.10
2019-05-23T14:36:09.189Z,3.50
2019-05-23T14:38:56.338Z,4.92
2019-05-23T14:42:01.350Z,3.37
2019-05-23T14:44:46.232Z,3.37
2019-05-23T14:47:37.253Z,3.72
2019-05-23T14:50:27.226Z,4.40
2019-05-23T14:53:14.651Z,4.62
2019-05-23T14:55:59.666Z,4.10
2019-05-23T14:58:45.125Z,4.03
2019-05-23T15:01:31.970Z,4.00
2019-05-23T15:04:18.385Z,4.08
2019-05-23T15:07:03.921Z,4.10
2019-05-23T15:09:48.752Z,3.77
2019-05-23T15:12:33.877Z,3.80
2019-05-23T15:15:19.459Z,3.92
2019-05-23T15:18:05.157Z,3.87
2019-05-23T15:20:50.219Z,4.83
2019-05-23T15:23:35.361Z,3.95
2019-05-23T15:26:23.477Z,4.00
2019-05-23T15:29:07.611Z,4.17
2019-05-23T15:32:02.526Z,4.00
2019-05-23T15:34:39.689Z,3.92
2019-05-23T15:37:24.652Z,3.75
2019-05-23T15:40:10.337Z,4.30
2019-05-23T15:42:55.156Z,5.25
2019-05-23T15:45:40.180Z,4.58
2019-05-23T15:48:25.476Z,3.75
2019-05-23T15:51:12.127Z,4.97
2019-05-23T15:53:59.151Z,7.65
2019-05-23T15:56:49.121Z,4.40
2019-05-23T15:59:50.939Z,4.12
2019-05-23T16:02:41.346Z,4.40
2019-05-23T16:05:28.580Z,5.42
2019-05-23T16:08:13.739Z,3.27
2019-05-23T16:10:59.224Z,3.40
2019-05-23T16:13:44.251Z,3.20
2019-05-23T16:16:30.043Z,4.42
2019-05-23T16:19:15.436Z,4.33
2019-05-23T16:22:00.843Z,3.95
2019-05-23T16:24:46.589Z,3.80
2019-05-23T16:27:31.584Z,4.00
2019-05-23T16:30:17.037Z,2.92
2019-05-23T16:33:02.109Z,3.72
2019-05-23T16:35:48.331Z,3.42
2019-05-23T16:38:33.247Z,4.10
2019-05-23T16:41:18.194Z,3.12
2019-05-23T16:44:03.627Z,2.87
2019-05-23T16:46:49.025Z,3.20
2019-05-23T16:49:34.079Z,3.15
2019-05-23T16:52:19.158Z,3.30
2019-05-23T16:55:06.795Z,2.72
2019-05-23T16:57:56.483Z,2.90
2019-05-23T17:00:52.959Z,2.40
2019-05-23T17:03:40.404Z,3.22
2019-05-23T17:06:51.624Z,3.05
2019-05-23T17:10:06.739Z,2.83
2019-05-23T17:12:42.284Z,2.50
2019-05-23T17:15:41.729Z,3.25
2019-05-23T17:18:31.097Z,2.80
2019-05-23T17:21:18.297Z,2.58
2019-05-23T17:24:07.979Z,2.65
2019-05-23T17:26:55.383Z,2.87
2019-05-23T17:29:48.911Z,2.77
2019-05-23T17:35:20.564Z,2.60
2019-05-23T17:38:05.770Z,2.80
2019-05-23T17:40:51.740Z,2.83
2019-05-23T17:43:36.861Z,2.92
2019-05-23T17:46:22.180Z,3.22
2019-05-23T17:49:07.301Z,2.70
2019-05-23T17:51:52.548Z,2.60
2019-05-23T17:54:38.817Z,2.50
2019-05-23T17:57:24.134Z,2.55
2019-05-23T18:00:11.895Z,2.40
2019-05-23T18:02:57.482Z,3.25
2019-05-23T18:05:42.293Z,2.62
2019-05-23T18:08:28.809Z,2.35
2019-05-23T18:11:15.149Z,2.45
2019-05-23T18:14:00.814Z,2.30
2019-05-23T18:16:45.849Z,2.20
2019-05-23T18:19:31.363Z,2.40
2019-05-23T18:22:17.479Z,2.72
2019-05-23T18:25:04.382Z,2.42
2019-05-23T18:27:50.056Z,2.50
2019-05-23T18:30:49.153Z,2.45
2019-05-23T18:33:34.546Z,2.50
2019-05-23T18:36:20.030Z,2.37
2019-05-23T18:39:09.548Z,2.50
2019-05-23T18:41:54.342Z,2.60
2019-05-23T18:44:40.176Z,2.60
2019-05-23T18:47:33.119Z,2.67
2019-05-23T18:50:20.531Z,2.47
2019-05-23T18:53:05.935Z,2.70
2019-05-23T18:55:51.624Z,2.52
2019-05-23T18:58:36.756Z,2.70
2019-05-23T19:01:23.906Z,2.55
2019-05-23T19:04:09.117Z,2.80
2019-05-23T19:06:54.705Z,2.90
2019-05-23T19:09:40.202Z,2.90
2019-05-23T19:12:25.976Z,3.10
2019-05-23T19:15:12.193Z,2.83
2019-05-23T19:17:57.303Z,2.80
2019-05-23T19:20:42.409Z,3.00
2019-05-23T19:23:27.517Z,3.05
2019-05-23T19:26:14.197Z,2.95
2019-05-23T19:28:59.635Z,3.22
2019-05-23T19:31:45.127Z,3.40
2019-05-23T19:34:29.818Z,3.27
2019-05-23T19:37:15.212Z,3.25
2019-05-23T19:40:01.676Z,3.15
2019-05-23T19:42:46.468Z,3.52
2019-05-23T19:45:32.242Z,4.72
2019-05-23T19:48:18.634Z,4.30
2019-05-23T19:51:05.265Z,3.90
2019-05-23T19:53:50.668Z,4.70
2019-05-23T19:56:36.519Z,4.28
2019-05-23T19:59:21.469Z,3.70
2019-05-23T20:02:08.413Z,3.85
2019-05-23T20:04:56.007Z,3.27
2019-05-23T20:07:41.313Z,3.25
2019-05-23T20:10:27.149Z,3.60
2019-05-23T20:13:12.918Z,3.75
2019-05-23T20:15:58.049Z,3.22
2019-05-23T20:18:43.218Z,3.22
2019-05-23T20:21:28.646Z,3.17
2019-05-23T20:24:13.625Z,3.30
2019-05-23T20:26:58.947Z,4.05
2019-05-23T20:29:43.821Z,3.60
2019-05-23T20:32:28.479Z,3.50
2019-05-23T20:35:13.952Z,3.60
2019-05-23T20:37:58.771Z,3.37
2019-05-23T20:40:43.993Z,3.45
2019-05-23T20:43:29.203Z,3.37
2019-05-23T20:46:14.734Z,3.58
2019-05-23T20:48:59.625Z,3.22
2019-05-23T20:51:45.065Z,3.15
2019-05-23T20:54:33.307Z,3.65
2019-05-23T20:57:18.181Z,4.00
2019-05-23T21:00:08.119Z,3.72
2019-05-23T21:02:53.911Z,3.22
2019-05-23T21:05:39.470Z,3.50
2019-05-23T21:08:24.893Z,3.20
2019-05-23T21:11:10.102Z,3.62
2019-05-23T21:13:55.014Z,3.58
2019-05-23T21:16:40.159Z,3.50
2019-05-23T21:19:25.290Z,3.15
2019-05-23T21:22:10.400Z,4.17
2019-05-23T21:24:55.629Z,3.55
2019-05-23T21:27:40.718Z,3.42
2019-05-23T21:30:25.961Z,3.40
2019-05-23T21:33:10.815Z,4.42
2019-05-23T21:35:55.811Z,3.42
2019-05-23T21:38:40.700Z,3.42
2019-05-23T21:41:25.961Z,3.52
2019-05-23T21:44:10.644Z,3.45
2019-05-23T21:46:55.514Z,3.80
2019-05-23T21:49:40.217Z,3.70
2019-05-23T21:52:26.026Z,4.00
2019-05-23T21:55:14.651Z,3.98
2019-05-23T21:57:59.922Z,4.12
2019-05-23T22:01:05.637Z,4.35
2019-05-23T22:04:00.414Z,4.90
2019-05-23T22:06:46.931Z,4.60
2019-05-23T22:09:33.237Z,4.87
2019-05-23T22:12:18.537Z,4.67
2019-05-23T22:15:05.262Z,4.60
2019-05-23T22:17:50.462Z,4.58
2019-05-23T22:20:35.242Z,4.80
2019-05-23T22:23:20.289Z,3.90
2019-05-23T22:26:05.362Z,4.00
2019-05-23T22:28:50.806Z,3.90
2019-05-23T22:31:36.066Z,3.52
2019-05-23T22:34:25.690Z,3.80
2019-05-23T22:37:12.557Z,3.77
2019-05-23T22:39:57.919Z,4.37
2019-05-23T22:42:43.025Z,3.33
2019-05-23T22:45:29.321Z,3.47
2019-05-23T22:48:14.047Z,3.98
2019-05-23T22:50:58.934Z,3.55
2019-05-23T22:53:44.095Z,3.85
2019-05-23T22:56:28.874Z,3.90
2019-05-23T22:59:13.741Z,3.58
2019-05-23T23:01:58.727Z,4.10
2019-05-23T23:04:44.239Z,3.90
2019-05-23T23:07:29.713Z,3.30
2019-05-23T23:10:14.957Z,3.92
2019-05-23T23:13:00.110Z,3.65
2019-05-23T23:15:45.065Z,4.12
2019-05-23T23:18:30.126Z,3.25
2019-05-23T23:21:14.965Z,3.87
2019-05-23T23:23:59.818Z,3.55
2019-05-23T23:26:44.582Z,3.98
2019-05-23T23:29:30.519Z,3.75
2019-05-23T23:32:15.285Z,4.12
2019-05-23T23:35:00.155Z,3.77
2019-05-23T23:37:44.898Z,3.90
2019-05-23T23:40:29.741Z,4.00
2019-05-23T23:43:14.530Z,3.90
2019-05-23T23:46:18.200Z,4.03
2019-05-23T23:49:21.316Z,3.50
2019-05-23T23:52:24.650Z,3.80
2019-05-23T23:55:28.222Z,3.80
2019-05-23T23:58:14.853Z,3.55
